Portada
METAR-TAF:

METAR-TAF

Aeropuertos :

Aeropuerto de Montpellier-Méditerranée

Montpellier, Francia

latitud: 43-35N, longitud: 003-58E, altitud: 5 m

Observación

El informe se hizo hace 24 minutos, a las 13:30 UTC
Viento 14 kt del noroeste
Temperatura 15°C
Humedad 44%
Presión 1026 hPa
Visibilidad 10 km o más
sin nubes por debajo de 1500 m y sin presencia de cumulonimbus.

METAR: LFMT 101330Z AUTO 31014KT CAVOK 15/03 Q1026 TEMPO 28015G25KT

Hora: 14:54 (13:54 UTC)

Pronóstico

El informe se hizo hace 5 horas y 54 minutos, a las 08:00 UTC
Pronóstico válido del 10 a las 09 UTC al 11 a las 09 UTC
Viento 12 kt del noroeste
Visibilidad 10 km o más
sin nubes por debajo de 1500 m y sin presencia de cumulonimbus.
Temporalmente
del 10 a las 09 UTC al 10 a las 21 UTC
Viento 15 kt del oeste con ráfagas de 25 kt

TAF: LFMT 100800Z 1009/1109 32012KT CAVOK TEMPO 1009/1021 28015G25KT

Observaciones y pronósticos meteorológicos de más de 4000 aeropuertos (mensajes METAR y TAF).

Los puntos amarillos y rojos representan las estaciones disponibles.

Ponga el ratón en el punto deseado para ver el nombre de la estación.

Haga clic para ver las observaciones y los pronósticos meteorológicos.

Para cambiar el mapa : haga clic en los botones verdes con una cruz de color negro para hacer un zoom, en el botón verde con un guión para alejar o en las flechas verdes para mapas adyacentes.


METAR-TAF: